createdAt,value
2023-01-07T00:01:17.883Z,101159.00
2023-01-07T00:03:46.373Z,101152.00
2023-01-07T00:06:16.016Z,101155.00
2023-01-07T00:08:44.291Z,101167.00
2023-01-07T00:11:13.576Z,101152.00
2023-01-07T00:13:40.332Z,101158.00
2023-01-07T00:16:09.625Z,101154.00
2023-01-07T00:18:36.970Z,101154.00
2023-01-07T00:21:06.474Z,101153.00
2023-01-07T00:23:34.401Z,101137.00
2023-01-07T00:26:04.046Z,101146.00
2023-01-07T00:28:31.155Z,101143.00
2023-01-07T00:31:06.583Z,101132.00
2023-01-07T00:33:37.829Z,101126.00
2023-01-07T00:36:10.572Z,101137.00
2023-01-07T00:38:37.461Z,101143.00
2023-01-07T00:41:04.952Z,101144.00
2023-01-07T00:43:32.247Z,101136.00
2023-01-07T00:45:59.013Z,101145.00
2023-01-07T00:48:25.830Z,101154.00
2023-01-07T00:50:53.336Z,101150.00
2023-01-07T00:53:20.431Z,101142.00
2023-01-07T00:55:50.844Z,101147.00
2023-01-07T00:58:23.088Z,101143.00
2023-01-07T01:00:50.131Z,101141.00
2023-01-07T01:03:17.015Z,101127.00
2023-01-07T01:05:43.832Z,101139.00
2023-01-07T01:08:10.666Z,101119.00
2023-01-07T01:10:38.084Z,101124.00
2023-01-07T01:13:04.952Z,101129.00
2023-01-07T01:15:31.747Z,101124.00
2023-01-07T01:17:58.535Z,101114.00
2023-01-07T01:20:25.301Z,101122.00
2023-01-07T01:22:52.077Z,101119.00
2023-01-07T01:25:18.980Z,101121.00
2023-01-07T01:27:45.841Z,101111.00
2023-01-07T01:30:12.758Z,101107.00
2023-01-07T01:32:39.494Z,101115.00
2023-01-07T01:35:06.786Z,101101.00
2023-01-07T01:37:33.593Z,101114.00
2023-01-07T01:40:03.942Z,101095.00
2023-01-07T01:42:31.767Z,101099.00
2023-01-07T01:45:00.154Z,101103.00
2023-01-07T01:47:40.968Z,101103.00
2023-01-07T01:50:13.770Z,101086.00
2023-01-07T01:53:00.478Z,101089.00
2023-01-07T01:55:40.226Z,101094.00
2023-01-07T01:58:12.134Z,101086.00
2023-01-07T02:00:38.998Z,101094.00
2023-01-07T02:03:08.043Z,101091.00
2023-01-07T02:05:40.680Z,101082.00
2023-01-07T02:08:08.313Z,101077.00
2023-01-07T02:10:37.798Z,101063.00
2023-01-07T02:13:31.201Z,101080.00
2023-01-07T02:16:33.716Z,101066.00
2023-01-07T02:19:20.731Z,101074.00
2023-01-07T02:21:58.501Z,101084.00
2023-01-07T02:25:00.331Z,101065.00
2023-01-07T02:27:50.966Z,101069.00
2023-01-07T02:30:50.767Z,101065.00
2023-01-07T02:33:42.073Z,101058.00
2023-01-07T02:36:08.787Z,101042.00
2023-01-07T02:38:44.923Z,101054.00
2023-01-07T02:41:11.692Z,101037.00
2023-01-07T02:44:01.979Z,101039.00
2023-01-07T02:47:11.743Z,101043.00
2023-01-07T02:49:38.566Z,101029.00
2023-01-07T02:52:20.620Z,101022.00
2023-01-07T02:54:59.865Z,101025.00
2023-01-07T02:57:41.846Z,101031.00
2023-01-07T03:00:27.425Z,101027.00
2023-01-07T03:03:31.879Z,101016.00
2023-01-07T03:06:26.909Z,101010.00
2023-01-07T03:09:14.881Z,101008.00
2023-01-07T03:11:47.579Z,101004.00
2023-01-07T03:14:26.226Z,101012.00
2023-01-07T03:17:00.310Z,100994.00
2023-01-07T03:19:36.305Z,100997.00
2023-01-07T03:22:05.669Z,100989.00
2023-01-07T03:24:33.495Z,101004.00
2023-01-07T03:27:02.668Z,100999.00
2023-01-07T03:29:32.190Z,100996.00
2023-01-07T03:32:04.668Z,100992.00
2023-01-07T03:34:32.552Z,100994.00
2023-01-07T03:37:02.645Z,100987.00
2023-01-07T03:39:31.660Z,100982.00
2023-01-07T03:42:17.461Z,100982.00
2023-01-07T03:44:44.354Z,100986.00
2023-01-07T03:47:11.446Z,100972.00
2023-01-07T03:49:38.715Z,100976.00
2023-01-07T03:52:05.944Z,100975.00
2023-01-07T03:54:32.717Z,100970.00
2023-01-07T03:56:59.751Z,100970.00
2023-01-07T03:59:26.556Z,100963.00
2023-01-07T04:01:53.522Z,100959.00
2023-01-07T04:04:20.575Z,100956.00
2023-01-07T04:06:47.802Z,100946.00
2023-01-07T04:09:15.193Z,100942.00
2023-01-07T04:11:42.015Z,100936.00
2023-01-07T04:14:08.949Z,100934.00
2023-01-07T04:16:36.004Z,100926.00
2023-01-07T04:19:02.845Z,100934.00
2023-01-07T04:21:29.869Z,100931.00
2023-01-07T04:23:56.849Z,100939.00
2023-01-07T04:26:23.695Z,100936.00
2023-01-07T04:28:50.473Z,100930.00
2023-01-07T04:31:17.273Z,100930.00
2023-01-07T04:33:44.155Z,100928.00
2023-01-07T04:36:13.182Z,100932.00
2023-01-07T04:38:40.071Z,100929.00
2023-01-07T04:41:06.934Z,100919.00
2023-01-07T04:43:33.803Z,100921.00
2023-01-07T04:46:00.734Z,100913.00
2023-01-07T04:48:27.581Z,100918.00
2023-01-07T04:50:54.417Z,100903.00
2023-01-07T04:53:21.214Z,100903.00
2023-01-07T04:55:48.031Z,100913.00
2023-01-07T04:58:14.881Z,100922.00
2023-01-07T05:00:41.732Z,100904.00
2023-01-07T05:03:08.573Z,100893.00
2023-01-07T05:05:35.546Z,100898.00
2023-01-07T05:08:02.358Z,100905.00
2023-01-07T05:10:29.149Z,100907.00
2023-01-07T05:12:55.967Z,100900.00
2023-01-07T05:15:22.737Z,100889.00
2023-01-07T05:17:49.539Z,100894.00
2023-01-07T05:20:16.476Z,100880.00
2023-01-07T05:22:43.304Z,100890.00
2023-01-07T05:25:10.232Z,100889.00
2023-01-07T05:27:37.088Z,100888.00
2023-01-07T05:30:04.651Z,100884.00
2023-01-07T05:32:31.470Z,100897.00
2023-01-07T05:34:58.864Z,100887.00
2023-01-07T05:37:25.628Z,100883.00
2023-01-07T05:39:52.391Z,100878.00
2023-01-07T05:42:19.195Z,100885.00
2023-01-07T05:44:45.961Z,100875.00
2023-01-07T05:47:12.714Z,100880.00
2023-01-07T05:49:39.462Z,100878.00
2023-01-07T05:52:06.297Z,100899.00
2023-01-07T05:54:33.162Z,100883.00
2023-01-07T05:56:59.951Z,100894.00
2023-01-07T05:59:26.727Z,100885.00
2023-01-07T06:01:53.469Z,100885.00
2023-01-07T06:04:20.379Z,100882.00
2023-01-07T06:06:47.205Z,100866.00
2023-01-07T06:09:14.033Z,100876.00
2023-01-07T06:11:40.824Z,100876.00
2023-01-07T06:14:07.566Z,100871.00
2023-01-07T06:16:34.340Z,100875.00
2023-01-07T06:19:01.157Z,100866.00
2023-01-07T06:21:28.161Z,100872.00
2023-01-07T06:23:55.842Z,100876.00
2023-01-07T06:26:22.667Z,100869.00
2023-01-07T06:28:51.770Z,100866.00
2023-01-07T06:31:18.602Z,100866.00
2023-01-07T06:33:45.505Z,100863.00
2023-01-07T06:36:12.335Z,100864.00
2023-01-07T06:38:39.203Z,100862.00
2023-01-07T06:41:06.052Z,100857.00
2023-01-07T06:43:32.880Z,100848.00
2023-01-07T06:45:59.868Z,100850.00
2023-01-07T06:48:26.915Z,100855.00
2023-01-07T06:50:53.672Z,100858.00
2023-01-07T06:53:20.519Z,100866.00
2023-01-07T06:55:51.186Z,100864.00
2023-01-07T06:58:18.152Z,100868.00
2023-01-07T07:00:45.353Z,100863.00
2023-01-07T07:03:12.261Z,100860.00
2023-01-07T07:05:39.166Z,100864.00
2023-01-07T07:08:06.457Z,100872.00
2023-01-07T07:10:33.460Z,100857.00
2023-01-07T07:13:00.207Z,100863.00
2023-01-07T07:15:26.961Z,100851.00
2023-01-07T07:17:53.722Z,100858.00
2023-01-07T07:20:20.484Z,100860.00
2023-01-07T07:22:48.103Z,100853.00
2023-01-07T07:25:15.284Z,100858.00
2023-01-07T07:27:44.980Z,100856.00
2023-01-07T07:30:12.860Z,100847.00
2023-01-07T07:32:39.633Z,100860.00
2023-01-07T07:35:07.040Z,100862.00
2023-01-07T07:37:33.827Z,100852.00
2023-01-07T07:40:00.580Z,100856.00
2023-01-07T07:42:27.371Z,100860.00
2023-01-07T07:44:54.094Z,100856.00
2023-01-07T07:47:21.241Z,100862.00
2023-01-07T07:49:48.187Z,100858.00
2023-01-07T07:52:14.936Z,100854.00
2023-01-07T07:54:42.595Z,100850.00
2023-01-07T07:57:09.363Z,100849.00
2023-01-07T07:59:36.182Z,100846.00
2023-01-07T08:02:03.093Z,100848.00
2023-01-07T08:04:36.970Z,100852.00
2023-01-07T08:07:03.869Z,100856.00
2023-01-07T08:09:34.003Z,100844.00
2023-01-07T08:12:00.867Z,100833.00
2023-01-07T08:14:27.726Z,100833.00
2023-01-07T08:16:54.732Z,100843.00
2023-01-07T08:19:21.574Z,100833.00
2023-01-07T08:21:49.332Z,100824.00
2023-01-07T08:24:16.141Z,100823.00
2023-01-07T08:26:43.132Z,100821.00
2023-01-07T08:29:09.931Z,100821.00
2023-01-07T08:31:39.812Z,100822.00
2023-01-07T08:34:27.026Z,100820.00
2023-01-07T08:36:53.922Z,100816.00
2023-01-07T08:39:20.905Z,100820.00
2023-01-07T08:41:47.748Z,100817.00
2023-01-07T08:44:14.547Z,100826.00
2023-01-07T08:46:43.023Z,100826.00
2023-01-07T08:49:10.816Z,100830.00
2023-01-07T08:51:37.635Z,100831.00
2023-01-07T08:54:04.620Z,100824.00
2023-01-07T08:56:33.563Z,100827.00
2023-01-07T08:59:00.485Z,100832.00
2023-01-07T09:01:27.480Z,100828.00
2023-01-07T09:04:09.580Z,100832.00
2023-01-07T09:06:36.422Z,100823.00
2023-01-07T09:09:03.529Z,100817.00
2023-01-07T09:11:30.486Z,100832.00
2023-01-07T09:13:57.287Z,100816.00
2023-01-07T09:16:24.273Z,100827.00
2023-01-07T09:18:51.215Z,100815.00
2023-01-07T09:21:17.996Z,100822.00
2023-01-07T09:23:45.046Z,100820.00
2023-01-07T09:26:23.889Z,100821.00
2023-01-07T09:28:50.656Z,100820.00
2023-01-07T09:31:17.461Z,100819.00
2023-01-07T09:33:56.140Z,100815.00
2023-01-07T09:36:22.971Z,100814.00
2023-01-07T09:38:49.739Z,100819.00
2023-01-07T09:41:31.776Z,100813.00
2023-01-07T09:44:07.786Z,100807.00
2023-01-07T09:46:34.641Z,100809.00
2023-01-07T09:49:06.482Z,100799.00
2023-01-07T09:51:43.783Z,100805.00
2023-01-07T09:54:37.828Z,100814.00
2023-01-07T09:57:05.292Z,100811.00
2023-01-07T09:59:34.748Z,100804.00
2023-01-07T10:02:55.512Z,100814.00
2023-01-07T10:05:40.914Z,100807.00
2023-01-07T10:08:32.476Z,100800.00
2023-01-07T10:11:19.440Z,100809.00
2023-01-07T10:14:05.082Z,100798.00
2023-01-07T10:16:42.208Z,100799.00
2023-01-07T10:19:18.057Z,100793.00
2023-01-07T10:21:56.373Z,100795.00
2023-01-07T10:24:34.272Z,100804.00
2023-01-07T10:27:05.101Z,100805.00
2023-01-07T10:29:52.960Z,100794.00
2023-01-07T10:32:22.572Z,100791.00
2023-01-07T10:34:56.377Z,100785.00
2023-01-07T10:37:34.897Z,100780.00
2023-01-07T10:40:32.264Z,100776.00
2023-01-07T10:43:18.235Z,100782.00
2023-01-07T10:45:54.385Z,100781.00
